Time;durP1;ratioP1;P1;durP2;ratioP2;P2;SDS_P1;SDS_P2;PMS_P1;PMS_P2;Temp;Humidity;BMP_temperature;BMP_pressure;BME280_temperature;BME280_humidity;BME280_pressure;Samples;Min_cycle;Max_cycle;Signal;HPM_P1;HPM_P2
2023/01/08 00:00:07;;;;;;;14.23;8.43;;;8.10;99.90;;;6.65;100.00;100451.75;5006210;28;20025;-84
2023/01/08 00:02:33;;;;;;;10.82;7.38;;;8.20;99.90;;;6.65;100.00;100449.13;5005778;28;20542;-84
2023/01/08 00:04:59;;;;;;;10.10;7.47;;;8.20;99.90;;;6.65;100.00;100451.75;4989649;28;20044;-83
2023/01/08 00:07:25;;;;;;;11.65;7.47;;;8.20;99.90;;;6.66;100.00;100463.94;4988410;28;20593;-83
2023/01/08 00:09:59;;;;;;;18.35;8.45;;;8.20;99.90;;;6.67;100.00;100463.88;4992922;28;20030;-86
2023/01/08 00:12:25;;;;;;;12.52;8.38;;;8.20;99.90;;;6.73;100.00;100466.28;4986395;28;20068;-84
2023/01/08 00:14:51;;;;;;;14.02;8.68;;;8.20;99.90;;;6.73;100.00;100458.44;5006053;28;20026;-86
2023/01/08 00:17:17;;;;;;;12.32;8.15;;;;;;;6.75;100.00;100461.00;5009071;28;20101;-85
2023/01/08 00:19:52;;;;;;;11.65;8.30;;;8.20;99.90;;;6.71;100.00;100444.53;5009124;28;20088;-85
2023/01/08 00:22:18;;;;;;;11.00;8.00;;;8.20;99.90;;;6.71;100.00;100443.69;5009703;28;20379;-84
2023/01/08 00:24:44;;;;;;;12.43;7.43;;;8.20;99.90;;;6.73;100.00;100445.34;4992942;28;20032;-84
2023/01/08 00:27:10;;;;;;;9.85;7.13;;;8.20;99.90;;;6.74;100.00;100433.97;5007301;28;20034;-85
2023/01/08 00:29:43;;;;;;;10.38;7.75;;;;;;;6.73;100.00;100436.66;5012308;28;20034;-84
2023/01/08 00:32:09;;;;;;;13.70;7.30;;;8.30;99.90;;;6.72;100.00;100427.94;5009182;28;20064;-84
2023/01/08 00:34:35;;;;;;;10.02;7.38;;;8.20;99.90;;;6.73;100.00;100426.19;4990482;28;20116;-84
2023/01/08 00:37:23;;;;;;;12.23;7.53;;;8.30;99.90;;;6.74;100.00;100428.75;4997649;28;20454;-86
2023/01/08 00:39:49;;;;;;;9.05;6.95;;;8.30;99.90;;;6.73;100.00;100424.41;4996541;28;20065;-84
2023/01/08 00:42:15;;;;;;;11.13;6.95;;;8.20;99.90;;;6.74;100.00;100427.91;4991781;28;20025;-84
2023/01/08 00:44:41;;;;;;;12.00;7.32;;;8.30;99.90;;;6.75;100.00;100414.75;4998570;28;20109;-85
2023/01/08 00:47:07;;;;;;;11.43;7.53;;;8.20;99.90;;;6.73;100.00;100415.72;4991727;28;20400;-84
2023/01/08 00:49:37;;;;;;;9.38;7.20;;;8.30;99.90;;;6.74;100.00;100406.97;4989888;28;20029;-85
2023/01/08 00:52:04;;;;;;;8.80;6.82;;;8.30;99.90;;;6.74;100.00;100404.34;5008273;28;20033;-84
2023/01/08 00:54:30;;;;;;;9.88;7.60;;;8.20;99.90;;;6.74;100.00;100393.88;5008290;28;20083;-85
2023/01/08 00:56:56;;;;;;;12.55;7.47;;;8.30;99.90;;;6.75;100.00;100396.44;4989845;28;20034;-85
2023/01/08 00:59:21;;;;;;;13.05;6.85;;;8.30;99.90;;;6.75;100.00;100396.44;5007380;28;20029;-86
2023/01/08 01:01:47;;;;;;;12.18;7.35;;;8.30;99.90;;;6.74;100.00;100384.25;4988923;28;20300;-84
2023/01/08 01:04:16;;;;;;;11.57;7.13;;;8.30;99.90;;;6.77;100.00;100389.38;4992113;28;20033;-83
2023/01/08 01:06:44;;;;;;;10.13;7.22;;;8.20;99.90;;;6.73;100.00;100371.22;4993976;28;20025;-85
2023/01/08 01:09:11;;;;;;;13.80;6.85;;;8.20;99.90;;;6.68;100.00;100358.31;4992190;28;20041;-85
2023/01/08 01:11:36;;;;;;;11.07;7.03;;;8.30;99.90;;;6.64;100.00;100369.81;4989403;28;20091;-84
2023/01/08 01:14:03;;;;;;;10.13;7.03;;;8.20;99.90;;;6.65;100.00;100365.41;4991482;28;20426;-85
2023/01/08 01:16:28;;;;;;;9.63;7.03;;;8.20;99.90;;;6.57;100.00;100361.31;4993577;28;20029;-85
2023/01/08 01:19:03;;;;;;;11.13;6.90;;;8.10;99.90;;;6.53;100.00;100364.94;4989565;28;20033;-86
2023/01/08 01:21:30;;;;;;;9.77;6.85;;;8.10;99.90;;;6.45;100.00;100361.75;5005942;28;20506;-84
2023/01/08 01:24:06;;;;;;;8.77;6.43;;;8.00;99.90;;;6.40;100.00;100352.38;4993223;28;20441;-86
2023/01/08 01:26:33;;;;;;;9.90;7.07;;;7.90;99.90;;;6.38;100.00;100362.03;4990588;28;20037;-86
2023/01/08 01:28:59;;;;;;;9.07;6.85;;;7.90;99.90;;;6.35;100.00;100358.63;4991009;28;20044;-84
2023/01/08 01:31:32;;;;;;;11.02;7.35;;;7.90;99.90;;;6.40;100.00;100358.44;4985861;28;20041;-82
2023/01/08 01:33:59;;;;;;;9.60;6.57;;;7.90;99.90;;;6.38;100.00;100370.72;5001944;28;20038;-83
2023/01/08 01:36:26;;;;;;;12.45;7.22;;;7.90;99.90;;;6.43;100.00;100376.63;4989225;28;20126;-86
2023/01/08 01:38:57;;;;;;;10.30;7.00;;;7.90;99.90;;;6.45;100.00;100380.06;5005685;28;20045;-86
2023/01/08 01:41:41;;;;;;;12.23;7.40;;;8.00;99.90;;;6.48;100.00;100381.72;5004855;28;20048;-85
2023/01/08 01:44:37;;;;;;;11.30;6.75;;;8.00;99.90;;;6.52;100.00;100375.47;4989350;28;20056;-84
2023/01/08 01:47:26;;;;;;;9.50;6.38;;;8.00;99.90;;;6.50;100.00;100383.38;5023156;28;20033;-86
2023/01/08 01:50:03;;;;;;;9.63;6.78;;;8.00;99.90;;;6.52;100.00;100368.50;5002225;28;20037;-85
2023/01/08 01:52:42;;;;;;;12.65;6.05;;;8.00;99.90;;;6.49;100.00;100358.13;5021194;28;20029;-84
2023/01/08 01:55:14;;;;;;;11.32;6.22;;;8.00;99.90;;;6.43;100.00;100357.47;4989668;28;20112;-83
2023/01/08 01:57:46;;;;;;;8.73;6.10;;;7.90;99.90;;;6.42;100.00;100345.34;5009242;28;20040;-84
2023/01/08 02:00:12;;;;;;;8.93;5.78;;;7.90;99.90;;;6.34;100.00;100337.75;5005162;28;20034;-86
2023/01/08 02:02:47;;;;;;;12.48;6.47;;;7.90;99.90;;;6.28;100.00;100344.03;4988195;28;20037;-84
2023/01/08 02:05:16;;;;;;;8.50;5.93;;;7.80;99.90;;;6.18;100.00;100345.28;5008263;28;20030;-85
2023/01/08 02:07:59;;;;;;;12.25;6.88;;;7.70;99.90;;;6.12;100.00;100346.34;4987090;28;20292;-86
2023/01/08 02:10:48;;;;;;;9.30;6.50;;;7.60;99.90;;;6.03;100.00;100346.66;4992224;28;20026;-84
2023/01/08 02:13:31;;;;;;;10.68;6.57;;;7.60;99.90;;;5.94;100.00;100350.44;5006812;28;20022;-85
2023/01/08 02:16:36;;;;;;;12.32;7.18;;;7.50;99.90;;;5.80;100.00;100342.16;4991465;28;20398;-84
2023/01/08 02:19:41;;;;;;;8.88;6.18;;;7.40;99.90;;;5.71;100.00;100337.25;5004546;28;20065;-86
2023/01/08 02:22:53;;;;;;;8.90;5.85;;;7.30;99.90;;;5.64;100.00;100330.53;5025191;28;20030;-83
2023/01/08 02:25:40;;;;;;;8.70;6.40;;;7.20;99.90;;;5.57;100.00;100337.66;5028743;28;20026;-84
2023/01/08 02:28:13;;;;;;;7.78;6.40;;;7.10;99.90;;;5.52;100.00;100321.31;4991051;28;20145;-86
2023/01/08 02:30:48;;;;;;;10.90;6.85;;;7.10;99.90;;;5.46;100.00;100316.28;5012005;28;20120;-85
2023/01/08 02:33:14;;;;;;;12.65;6.55;;;7.00;99.90;;;5.40;100.00;100301.69;4995739;28;20021;-84
2023/01/08 02:35:50;;;;;;;11.55;7.28;;;7.00;99.90;;;5.36;100.00;100305.28;5005602;28;20041;-85
2023/01/08 02:38:16;;;;;;;;;;;7.00;99.90;;;5.25;100.00;100295.19;4996077;28;20029;-86
2023/01/08 02:41:09;;;;;;;8.60;5.63;;;6.90;99.90;;;5.24;100.00;100280.41;5008318;28;19995;-85
2023/01/08 02:43:53;;;;;;;12.13;6.28;;;6.90;99.90;;;5.23;100.00;100290.91;4989205;28;20130;-85
2023/01/08 02:46:30;;;;;;;8.98;6.10;;;6.80;99.90;;;5.21;100.00;100274.44;4991922;28;20112;-84
2023/01/08 02:49:09;;;;;;;8.07;6.13;;;6.80;99.90;;;5.18;100.00;100269.31;4991277;28;20091;-85
2023/01/08 02:51:53;;;;;;;10.77;6.00;;;6.80;99.90;;;5.15;100.00;100270.25;4990092;28;20493;-84
2023/01/08 02:54:28;;;;;;;10.23;6.30;;;6.70;99.90;;;5.10;100.00;100265.19;5004208;28;20045;-85
2023/01/08 02:57:05;;;;;;;9.80;5.90;;;6.70;99.90;;;5.06;100.00;100260.97;5007897;28;20479;-84
2023/01/08 02:59:36;;;;;;;9.57;6.40;;;6.70;99.90;;;5.10;100.00;100272.16;4995431;28;20261;-85
2023/01/08 03:02:03;;;;;;;11.90;6.05;;;;;;;5.07;100.00;100280.94;5010978;28;20034;-85
2023/01/08 03:04:38;;;;;;;10.23;6.68;;;6.60;99.90;;;5.01;100.00;100273.31;5005726;28;20073;-84
2023/01/08 03:07:04;;;;;;;8.25;6.32;;;6.60;99.90;;;4.92;100.00;100253.56;5004843;28;20030;-85
2023/01/08 03:09:31;;;;;;;9.23;6.28;;;6.50;99.90;;;4.91;100.00;100269.28;5011798;28;20043;-84
2023/01/08 03:12:17;;;;;;;10.20;6.97;;;6.50;99.90;;;4.86;100.00;100271.16;5001696;28;20026;-84
2023/01/08 03:14:49;;;;;;;;;;;6.50;99.90;;;4.75;100.00;100263.66;4994837;28;20028;-86
2023/01/08 03:17:41;;;;;;;11.68;6.40;;;6.40;99.90;;;4.70;100.00;100258.56;4994730;28;19909;-86
2023/01/08 03:20:25;;;;;;;9.82;6.47;;;6.30;99.90;;;4.67;100.00;100258.66;4988797;28;20030;-85
2023/01/08 03:22:55;;;;;;;11.02;6.70;;;6.30;99.90;;;4.64;100.00;100244.84;4992581;28;20034;-84
2023/01/08 03:25:27;;;;;;;11.70;7.00;;;6.30;99.90;;;4.62;100.00;100226.66;5005342;28;20111;-85
2023/01/08 03:28:14;;;;;;;14.45;6.43;;;6.30;99.90;;;4.63;100.00;100241.41;5008597;28;20437;-86
2023/01/08 03:30:45;;;;;;;10.93;6.25;;;;;;;4.65;100.00;100237.00;4992489;28;20538;-85
2023/01/08 03:33:14;;;;;;;9.70;6.15;;;6.30;99.90;;;4.65;100.00;100242.22;5008590;28;20405;-85
2023/01/08 03:35:53;;;;;;;12.82;6.88;;;6.30;99.90;;;4.67;100.00;100247.41;5010037;28;20048;-85
2023/01/08 03:38:34;;;;;;;11.23;6.40;;;;;;;4.64;100.00;100235.28;4999025;28;20036;-85
2023/01/08 03:41:11;;;;;;;12.93;6.45;;;6.20;99.90;;;4.64;100.00;100232.66;5006218;28;20095;-85
2023/01/08 03:43:37;;;;;;;12.18;6.50;;;6.20;99.90;;;4.62;100.00;100225.78;5009135;28;20390;-84
2023/01/08 03:46:18;;;;;;;13.65;6.00;;;6.20;99.90;;;4.58;100.00;100218.97;4991382;28;20037;-85
2023/01/08 03:48:44;;;;;;;10.52;6.47;;;6.20;99.90;;;4.60;100.00;100238.03;5004393;28;20050;-86
2023/01/08 03:51:18;;;;;;;10.15;6.28;;;6.20;99.90;;;4.57;100.00;100231.16;5001965;28;20079;-84
2023/01/08 03:53:46;;;;;;;9.73;6.82;;;6.20;99.90;;;4.56;100.00;100244.22;5009393;28;20025;-86
2023/01/08 03:56:11;;;;;;;11.85;6.55;;;6.20;99.90;;;4.57;100.00;100245.94;4992364;28;20026;-84
2023/01/08 03:58:37;;;;;;;10.95;7.00;;;6.20;99.90;;;4.50;100.00;100248.72;4991090;28;20035;-85
2023/01/08 04:01:09;;;;;;;11.13;7.30;;;6.10;99.90;;;4.46;100.00;100252.31;5010694;28;20752;-86
2023/01/08 04:03:35;;;;;;;10.00;7.40;;;6.10;99.90;;;4.46;100.00;100260.16;5008418;28;20025;-84
2023/01/08 04:06:01;;;;;;;10.60;7.65;;;6.10;99.90;;;4.43;100.00;100264.63;4987678;28;20180;-85
2023/01/08 04:08:27;;;;;;;9.65;7.00;;;6.00;99.90;;;4.41;100.00;100266.41;5008083;28;20030;-85
2023/01/08 04:11:05;;;;;;;;;;;;;;;;;;;;;
2023/01/08 04:13:31;;;;;;;15.65;7.50;;;6.00;99.90;;;4.34;100.00;100254.44;5008687;28;20025;-85
2023/01/08 04:15:57;;;;;;;13.38;7.82;;;5.90;99.90;;;4.30;100.00;100259.75;4989386;28;20117;-84
2023/01/08 04:18:30;;;;;;;11.10;7.50;;;5.90;99.90;;;4.26;100.00;100247.69;4991081;28;20035;-87
2023/01/08 04:20:56;;;;;;;10.07;7.30;;;5.90;99.90;;;4.27;100.00;100249.38;5006504;28;20660;-85
2023/01/08 04:23:25;;;;;;;10.95;6.60;;;5.90;99.90;;;4.25;100.00;100243.34;4990707;28;20080;-85
2023/01/08 04:26:05;;;;;;;11.43;7.25;;;5.80;99.90;;;4.25;100.00;100232.09;4993644;28;20026;-86
2023/01/08 04:28:36;;;;;;;12.50;7.78;;;5.80;99.90;;;4.27;100.00;100225.94;5008856;28;20034;-85
2023/01/08 04:31:09;;;;;;;12.10;7.93;;;5.90;99.90;;;4.27;100.00;100227.69;5006457;28;20033;-86
2023/01/08 04:33:37;;;;;;;10.27;7.88;;;5.80;99.90;;;4.28;100.00;100227.66;4990005;28;20025;-85
2023/01/08 04:36:04;;;;;;;13.57;7.38;;;5.80;99.90;;;4.27;100.00;100222.47;5008251;28;20057;-86
2023/01/08 04:38:32;;;;;;;11.45;7.57;;;5.80;99.90;;;4.29;100.00;100220.69;5010055;28;20057;-83
2023/01/08 04:41:00;;;;;;;11.95;7.35;;;5.90;99.90;;;4.27;100.00;100218.09;4987733;28;20052;-85
2023/01/08 04:43:34;;;;;;;13.05;8.30;;;5.90;99.90;;;4.28;100.00;100216.38;4984604;28;20390;-85
2023/01/08 04:46:06;;;;;;;12.10;8.27;;;5.90;99.90;;;4.30;100.00;100214.59;4991987;28;20031;-84
2023/01/08 04:48:37;;;;;;;11.00;7.35;;;5.90;99.90;;;4.30;100.00;100207.63;5009447;28;20524;-85
2023/01/08 04:51:03;;;;;;;12.32;8.63;;;5.90;99.90;;;4.36;100.00;100218.75;5006801;28;20030;-86
2023/01/08 04:53:33;;;;;;;12.68;8.00;;;5.90;99.90;;;4.42;100.00;100213.34;5003522;28;20042;-84
2023/01/08 04:56:08;;;;;;;11.65;8.13;;;6.00;99.90;;;4.52;100.00;100209.59;5006486;28;20036;-84
2023/01/08 04:58:36;;;;;;;11.60;7.57;;;6.00;99.90;;;4.56;100.00;100200.78;4992817;28;20038;-85
2023/01/08 05:01:10;;;;;;;12.63;8.18;;;6.10;99.90;;;4.68;100.00;100192.56;4986959;28;20788;-86
2023/01/08 05:03:35;;;;;;;12.63;7.25;;;6.20;99.90;;;4.74;100.00;100183.69;5002642;28;20048;-85
2023/01/08 05:06:01;;;;;;;11.98;8.30;;;6.30;99.90;;;4.83;100.00;100180.78;5005640;28;20104;-86
2023/01/08 05:08:27;;;;;;;15.52;8.57;;;6.30;99.90;;;4.91;100.00;100183.19;5002758;28;20172;-84
2023/01/08 05:10:53;;;;;;;11.98;7.50;;;6.40;99.90;;;4.95;100.00;100174.34;4993751;28;20120;-85
2023/01/08 05:13:21;;;;;;;18.13;8.23;;;6.50;99.90;;;4.98;100.00;100179.47;5004242;28;20116;-86
2023/01/08 05:15:50;;;;;;;12.13;7.63;;;6.50;99.90;;;5.02;100.00;100170.63;4984224;28;20121;-84
2023/01/08 05:18:16;;;;;;;10.93;7.50;;;6.50;99.90;;;5.06;100.00;100180.06;5001996;28;20061;-85
2023/01/08 05:20:42;;;;;;;11.45;7.38;;;6.50;99.90;;;5.07;100.00;100179.16;5005368;28;20032;-84
2023/01/08 05:23:08;;;;;;;10.05;7.07;;;6.50;99.90;;;5.11;100.00;100182.53;4988224;28;20033;-86
2023/01/08 05:25:34;;;;;;;10.50;7.57;;;6.60;99.90;;;5.17;100.00;100179.72;4992332;28;20437;-86
2023/01/08 05:28:07;;;;;;;12.30;8.20;;;6.60;99.90;;;5.23;100.00;100196.94;5000878;28;20057;-84
2023/01/08 05:30:34;;;;;;;11.50;7.93;;;6.70;99.90;;;5.27;100.00;100201.13;4987538;28;20415;-86
2023/01/08 05:33:00;;;;;;;11.63;7.72;;;6.70;99.90;;;5.31;100.00;100197.50;4988891;28;20434;-84
2023/01/08 05:35:26;;;;;;;13.82;7.45;;;6.80;99.90;;;5.33;100.00;100188.75;5008790;28;20112;-84
2023/01/08 05:37:54;;;;;;;11.30;8.05;;;6.80;99.90;;;5.36;100.00;100179.97;4987072;28;20027;-86
2023/01/08 05:40:20;;;;;;;10.88;7.60;;;6.80;99.90;;;5.40;100.00;100183.31;5007993;28;20033;-86
2023/01/08 05:42:46;;;;;;;11.25;8.02;;;6.90;99.90;;;5.39;100.00;100177.22;5009370;28;20025;-85
2023/01/08 05:45:14;;;;;;;11.45;7.70;;;6.90;99.90;;;5.43;100.00;100180.59;4993117;28;20121;-85
2023/01/08 05:47:40;;;;;;;10.82;7.30;;;6.90;99.90;;;5.50;100.00;100171.66;5011398;28;20109;-84
2023/01/08 05:50:06;;;;;;;12.05;7.60;;;6.90;99.90;;;5.48;100.00;100166.47;4992621;28;20900;-85
2023/01/08 05:52:39;;;;;;;11.55;7.80;;;7.00;99.90;;;5.57;100.00;100167.91;5003900;28;20021;-86
2023/01/08 05:55:05;;;;;;;11.30;8.23;;;7.00;99.90;;;5.59;100.00;100160.03;4989488;28;20037;-84
2023/01/08 05:57:31;;;;;;;11.88;8.10;;;7.00;99.90;;;5.63;100.00;100164.25;4992542;28;20033;-85
2023/01/08 05:59:57;;;;;;;12.45;7.93;;;7.10;99.90;;;5.67;100.00;100171.06;5009299;28;20041;-84
2023/01/08 06:02:27;;;;;;;13.57;8.27;;;7.10;99.90;;;5.70;100.00;100173.56;5007610;28;20109;-84
2023/01/08 06:04:56;;;;;;;13.48;7.70;;;7.10;99.90;;;5.70;100.00;100169.22;5010090;28;20457;-85
2023/01/08 06:07:21;;;;;;;15.93;8.50;;;7.10;99.90;;;5.74;100.00;100167.31;4992254;28;20026;-85
2023/01/08 06:09:47;;;;;;;10.45;8.07;;;7.10;99.90;;;5.74;100.00;100159.47;4995886;28;20637;-84
2023/01/08 06:12:13;;;;;;;10.20;7.60;;;7.10;99.90;;;5.75;100.00;100156.81;4994674;28;20087;-85
2023/01/08 06:14:47;;;;;;;15.30;8.35;;;7.10;99.90;;;5.79;100.00;100156.69;4993873;28;20029;-84
2023/01/08 06:17:16;;;;;;;10.05;7.40;;;7.20;99.90;;;5.75;100.00;100163.81;4994109;28;20044;-85
2023/01/08 06:19:55;;;;;;;;;;;;;;;;;;;;;
2023/01/08 06:22:28;;;;;;;10.90;7.70;;;7.20;99.90;;;5.76;100.00;100157.66;5011714;28;20018;-86
2023/01/08 06:24:54;;;;;;;13.68;8.63;;;7.20;99.90;;;5.80;100.00;100161.03;4996160;28;20112;-86
2023/01/08 06:27:20;;;;;;;14.90;8.27;;;7.20;99.90;;;5.81;100.00;100158.38;4996734;28;20155;-85
2023/01/08 06:29:46;;;;;;;11.52;8.40;;;7.20;99.90;;;5.84;100.00;100152.19;5010134;28;20562;-84
2023/01/08 06:32:14;;;;;;;13.25;7.88;;;7.20;99.90;;;5.85;100.00;100162.59;5006917;28;20117;-84
2023/01/08 06:34:45;;;;;;;10.82;8.10;;;7.20;99.90;;;5.87;100.00;100171.19;4993763;28;20033;-84
2023/01/08 06:37:11;;;;;;;11.35;7.72;;;7.20;99.90;;;5.89;100.00;100172.00;5006368;28;20038;-84
2023/01/08 06:39:36;;;;;;;11.13;7.97;;;7.20;99.90;;;5.89;100.00;100164.16;4991608;28;20030;-84
2023/01/08 06:42:02;;;;;;;12.68;8.15;;;7.30;99.90;;;5.93;100.00;100167.50;5009032;28;20040;-86
2023/01/08 06:44:28;;;;;;;13.93;8.15;;;7.30;99.90;;;5.90;100.00;100152.81;4990057;28;20040;-84
2023/01/08 06:46:54;;;;;;;11.82;7.80;;;7.30;99.90;;;5.95;100.00;100155.28;4992632;28;20108;-84
2023/01/08 06:49:22;;;;;;;13.63;8.50;;;7.30;99.90;;;5.97;100.00;100150.00;5031128;23;20054;-77
2023/01/08 06:51:48;;;;;;;12.90;7.90;;;7.30;99.90;;;5.97;100.00;100156.06;5003676;28;20134;-77
2023/01/08 06:54:14;;;;;;;12.25;7.57;;;7.40;99.90;;;5.98;100.00;100154.31;4987433;28;20097;-77
2023/01/08 06:56:42;;;;;;;16.90;7.75;;;7.40;99.90;;;5.98;100.00;100154.31;5004144;28;20117;-78
2023/01/08 06:59:08;;;;;;;13.48;7.93;;;7.40;99.90;;;5.93;100.00;100155.28;4991617;28;20120;-78
2023/01/08 07:01:33;;;;;;;11.48;6.93;;;7.40;99.90;;;5.99;100.00;100164.72;5006151;28;20935;-77
2023/01/08 07:03:59;;;;;;;13.48;8.57;;;7.40;99.90;;;6.02;100.00;100155.91;5004042;28;20116;-77
2023/01/08 07:06:25;;;;;;;11.73;8.18;;;7.40;99.90;;;6.05;100.00;100155.81;4989501;28;20108;-77
2023/01/08 07:08:51;;;;;;;18.33;8.00;;;7.40;99.90;;;6.06;100.00;100153.13;5007036;28;20040;-77
2023/01/08 07:11:17;;;;;;;12.68;7.53;;;7.50;99.90;;;6.05;100.00;100148.81;5006788;28;20488;-76
2023/01/08 07:13:42;;;;;;;12.60;8.00;;;7.40;99.90;;;6.05;100.00;100142.75;4988769;28;20029;-76
2023/01/08 07:16:12;;;;;;;12.45;8.20;;;7.50;99.90;;;6.04;100.00;100141.88;5004585;28;20118;-77
2023/01/08 07:18:38;;;;;;;12.27;7.43;;;7.50;99.90;;;6.06;100.00;100141.81;4986125;28;20026;-77
2023/01/08 07:21:06;;;;;;;9.90;7.15;;;7.50;99.90;;;6.06;100.00;100129.59;4991529;28;20037;-78
2023/01/08 07:23:33;;;;;;;11.48;7.65;;;7.50;99.90;;;6.08;100.00;100129.53;4994459;28;20023;-77
2023/01/08 07:26:01;;;;;;;12.50;7.70;;;7.50;99.90;;;6.08;100.00;100114.72;5003973;28;20109;-76
2023/01/08 07:28:27;;;;;;;15.73;8.18;;;7.50;99.90;;;6.07;100.00;100106.91;4990007;28;20090;-77
2023/01/08 07:30:53;;;;;;;12.32;7.80;;;7.50;99.90;;;5.98;100.00;100118.56;5002711;28;20454;-77
2023/01/08 07:33:22;;;;;;;9.85;7.68;;;7.50;99.90;;;6.04;100.00;100112.28;4991029;28;20037;-77
2023/01/08 07:35:55;;;;;;;12.50;7.93;;;7.50;99.90;;;6.04;100.00;100107.03;4989856;28;20445;-77
2023/01/08 07:38:21;;;;;;;12.88;8.27;;;7.50;99.90;;;6.02;100.00;100106.25;5004885;28;20030;-77
2023/01/08 07:40:50;;;;;;;12.23;8.02;;;7.50;99.90;;;6.01;100.00;100105.41;5020004;28;20053;-77
2023/01/08 07:43:16;;;;;;;14.77;9.60;;;7.50;99.90;;;6.01;100.00;100115.84;4983101;28;20506;-77
2023/01/08 07:45:41;;;;;;;29.08;15.27;;;7.40;99.90;;;5.99;100.00;100114.22;5003662;28;20014;-77
2023/01/08 07:48:14;;;;;;;25.88;13.05;;;7.40;99.90;;;5.99;100.00;100109.00;5006544;28;20049;-76
2023/01/08 07:50:48;;;;;;;24.90;12.93;;;7.40;99.90;;;5.98;100.00;100107.28;5005638;28;20097;-77
2023/01/08 07:53:16;;;;;;;13.95;9.90;;;7.40;99.90;;;5.97;100.00;100098.59;4988203;28;20029;-77
2023/01/08 07:55:42;;;;;;;15.57;9.57;;;7.50;99.90;;;6.03;100.00;100108.81;5003594;28;20021;-78
2023/01/08 07:58:12;;;;;;;12.93;8.52;;;7.40;99.90;;;6.03;100.00;100100.97;5005762;28;20533;-77
2023/01/08 08:00:39;;;;;;;12.80;8.32;;;7.40;99.90;;;5.98;100.00;100102.03;5004217;28;20033;-76
2023/01/08 08:03:10;;;;;;;11.60;7.78;;;7.40;99.90;;;5.93;100.00;100097.81;4994908;28;20503;-77
2023/01/08 08:05:38;;;;;;;11.98;8.18;;;7.50;99.90;;;5.90;100.00;100103.16;5007848;28;20041;-77
2023/01/08 08:08:11;;;;;;;12.80;8.45;;;7.40;99.90;;;5.89;100.00;100105.81;5005136;28;20021;-77
2023/01/08 08:10:39;;;;;;;20.33;8.55;;;7.40;99.90;;;5.87;100.00;100103.25;4989711;28;20045;-77
2023/01/08 08:13:07;;;;;;;11.95;8.23;;;7.40;99.90;;;5.87;100.00;100105.03;5000894;28;20041;-77
2023/01/08 08:15:35;;;;;;;12.40;7.78;;;7.40;99.90;;;5.92;100.00;100093.50;4989247;28;20034;-77
2023/01/08 08:18:02;;;;;;;10.95;7.75;;;7.40;99.90;;;5.96;100.00;100091.63;5002129;28;20025;-77
2023/01/08 08:20:28;;;;;;;13.55;8.05;;;7.40;99.90;;;5.93;100.00;100092.56;5002708;28;20029;-76
2023/01/08 08:23:02;;;;;;;10.35;8.40;;;7.40;99.90;;;5.94;100.00;100099.56;5002494;28;20025;-77
2023/01/08 08:25:28;;;;;;;12.60;8.73;;;7.50;99.90;;;5.97;100.00;100097.75;4987695;28;20030;-76
2023/01/08 08:27:57;;;;;;;15.05;8.80;;;7.40;99.90;;;5.93;100.00;100105.66;4986576;28;20033;-77
2023/01/08 08:30:24;;;;;;;13.52;9.40;;;7.50;99.90;;;5.89;100.00;100103.22;4987207;28;20525;-77
2023/01/08 08:32:50;;;;;;;13.15;8.68;;;7.40;99.90;;;5.91;100.00;100109.22;4987036;28;20036;-77
2023/01/08 08:35:18;;;;;;;16.95;9.23;;;7.40;99.90;;;5.93;100.00;100110.88;5006246;28;20033;-78
2023/01/08 08:37:43;;;;;;;14.52;9.13;;;7.40;99.90;;;5.95;100.00;100103.84;5002951;28;20112;-77
2023/01/08 08:40:10;;;;;;;12.15;9.70;;;7.40;99.90;;;5.93;100.00;100095.19;5003687;28;20041;-76
2023/01/08 08:42:35;;;;;;;12.20;9.63;;;7.40;99.90;;;5.95;100.00;100093.41;4988876;28;20021;-77
2023/01/08 08:45:01;;;;;;;13.27;9.68;;;7.40;99.90;;;5.93;100.00;100089.97;5003145;28;20394;-77
2023/01/08 08:47:36;;;;;;;15.45;9.43;;;7.50;99.90;;;5.97;100.00;100088.13;5021034;28;20588;-78
2023/01/08 08:50:03;;;;;;;13.90;10.23;;;7.50;99.90;;;5.97;100.00;100090.75;5006414;28;20084;-78
2023/01/08 08:52:38;;;;;;;17.02;11.20;;;7.50;99.90;;;6.00;100.00;100088.00;5001898;28;20436;-77
2023/01/08 08:55:05;;;;;;;14.60;10.52;;;7.50;99.90;;;6.03;100.00;100087.91;5019725;28;20506;-77
2023/01/08 08:57:31;;;;;;;21.02;11.02;;;7.50;99.90;;;6.04;100.00;100086.97;5019724;28;20056;-78
2023/01/08 08:59:57;;;;;;;16.30;11.48;;;7.50;99.90;;;6.10;100.00;100088.53;4986926;28;20869;-79
2023/01/08 09:02:25;;;;;;;18.42;11.23;;;7.50;99.90;;;6.12;100.00;100095.38;4987823;28;20029;-78
2023/01/08 09:04:54;;;;;;;18.45;11.73;;;7.60;99.90;;;6.16;100.00;100096.13;4983550;28;20047;-78
2023/01/08 09:07:19;;;;;;;17.33;12.50;;;7.60;99.90;;;6.19;100.00;100103.84;5001009;28;20029;-78
2023/01/08 09:09:48;;;;;;;21.13;12.30;;;7.60;99.90;;;6.22;100.00;100095.03;5004131;28;20056;-79
2023/01/08 09:12:14;;;;;;;17.80;11.93;;;7.60;99.90;;;6.25;100.00;100101.00;5003538;28;20064;-80
2023/01/08 09:14:43;;;;;;;18.58;12.30;;;7.60;99.90;;;6.23;100.00;100097.59;5001901;28;20069;-79
2023/01/08 09:17:11;;;;;;;16.65;12.52;;;7.70;99.90;;;6.26;100.00;100094.84;5005167;28;20482;-78
2023/01/08 09:19:37;;;;;;;19.15;12.57;;;7.70;99.90;;;6.30;100.00;100092.97;5003573;28;20041;-78
2023/01/08 09:22:03;;;;;;;22.17;13.32;;;7.70;99.90;;;6.33;100.00;100095.47;5001214;28;20038;-80
2023/01/08 09:24:31;;;;;;;18.92;13.13;;;7.70;99.90;;;6.33;100.00;100093.72;4986742;28;20096;-77
2023/01/08 09:26:57;;;;;;;19.17;12.85;;;7.70;99.90;;;6.35;100.00;100091.88;4986208;28;20048;-79
2023/01/08 09:29:27;;;;;;;18.67;12.43;;;7.70;99.90;;;6.39;100.00;100099.59;5002989;28;20022;-80
2023/01/08 09:31:52;;;;;;;23.33;14.45;;;7.80;99.90;;;6.38;100.00;100098.75;5019311;28;20029;-80
2023/01/08 09:34:21;;;;;;;20.27;14.20;;;7.70;99.90;;;6.38;100.00;100095.31;5022301;28;20092;-79
2023/01/08 09:36:51;;;;;;;19.65;13.68;;;7.80;99.90;;;6.40;100.00;100098.72;4988961;28;20042;-79
2023/01/08 09:39:23;;;;;;;23.80;14.52;;;7.80;99.90;;;6.40;100.00;100098.72;5004993;28;20538;-80
2023/01/08 09:41:50;;;;;;;23.73;13.65;;;7.80;99.90;;;6.38;100.00;100090.91;4984671;28;20076;-79
2023/01/08 09:44:25;;;;;;;21.08;14.45;;;7.80;99.90;;;6.36;100.00;100090.13;5003942;28;20025;-80
2023/01/08 09:46:57;;;;;;;23.20;14.77;;;7.80;99.90;;;6.36;100.00;100085.72;4989008;28;20133;-78
2023/01/08 09:50:00;;;;;;;25.15;14.85;;;7.80;99.90;;;6.28;100.00;100085.19;5004712;28;20107;-81
2023/01/08 09:52:27;;;;;;;21.67;15.32;;;7.80;99.90;;;6.25;100.00;100077.47;4982808;28;20038;-80
2023/01/08 09:54:56;;;;;;;25.08;15.95;;;7.70;99.90;;;6.27;100.00;100073.03;5001208;28;20049;-81
2023/01/08 09:57:28;;;;;;;23.27;15.77;;;7.80;99.90;;;6.28;100.00;100077.34;4988479;28;20124;-80
2023/01/08 09:59:54;;;;;;;26.88;16.92;;;7.70;99.90;;;6.29;100.00;100076.44;5000296;28;20034;-80
2023/01/08 10:02:27;;;;;;;24.55;16.23;;;7.80;99.90;;;6.31;100.00;100073.78;5004988;28;20155;-80
2023/01/08 10:04:59;;;;;;;26.88;16.92;;;7.80;99.90;;;6.28;100.00;100068.66;4986298;28;20037;-80
2023/01/08 10:07:30;;;;;;;22.33;16.38;;;7.80;99.90;;;6.28;100.00;100069.50;5005732;28;20134;-81
2023/01/08 10:10:01;;;;;;;26.33;16.70;;;7.70;99.90;;;6.31;100.00;100064.16;5003436;28;20066;-80
2023/01/08 10:12:34;;;;;;;30.73;17.05;;;7.70;99.90;;;6.32;100.00;100063.22;5000403;28;20100;-80
2023/01/08 10:15:10;;;;;;;22.73;16.25;;;7.80;99.90;;;6.29;100.00;100065.97;5004812;28;20083;-80
2023/01/08 10:18:06;;;;;;;26.45;17.48;;;7.70;99.90;;;6.22;100.00;100063.66;4985142;28;20048;-80
2023/01/08 10:20:40;;;;;;;29.30;18.13;;;7.70;99.90;;;6.23;100.00;100065.38;5020234;28;20042;-79
2023/01/08 10:23:16;;;;;;;27.02;18.33;;;7.70;99.90;;;6.24;100.00;100062.72;5004120;28;20068;-80
2023/01/08 10:26:02;;;;;;;34.83;18.90;;;7.70;99.90;;;6.27;100.00;100057.34;5003550;28;20022;-80
2023/01/08 10:28:36;;;;;;;28.65;18.65;;;7.70;99.90;;;6.26;100.00;100049.56;5001166;28;20041;-80
2023/01/08 10:31:16;;;;;;;32.75;18.48;;;7.70;99.90;;;6.25;100.00;100046.09;5003486;28;20743;-80